Rye, New York
Current Conditions -  °F | °C
As of 9:56 AM on Friday 24 Oct 2014 (Local Time) from KHPN Reporting Station
Broken Clouds Broken Clouds  
Wind Chill: 51°   Ceiling: 3200
Heat Index: 51°   Visibility: 10mi
Dew Point: 45°   Wind: 15mph
Humidity: 80%   Direction: 320°NW
Pressure: 29.8"   Gusts: 18mph
Location:  40.98°N, 73.68°W
Report Text: KHPN 241356Z 32013G16KT 10SM SCT022 BKN032 11/07 A2980 RMK AO2 SLP093 T01060072
Loading
Personal Weather Stations






























Interactive Weather Map
Tropical Storm Tracking
New forecast layout! Learn more

10-Day Weather Forecast

Advertisements
Track Severe Weather on mobile